createdAt,value
2023-02-03T17:54:51.882Z,1017.52
2023-02-03T17:55:34.171Z,1017.64
2023-02-03T17:56:16.298Z,1017.58
2023-02-03T17:56:58.379Z,1017.55
2023-02-03T17:59:28.490Z,1017.39
2023-02-03T18:00:08.992Z,1017.54
2023-02-03T18:00:49.509Z,1017.52
2023-02-03T18:01:30.789Z,1017.43
2023-02-03T18:02:11.236Z,1017.44
2023-02-03T18:04:10.455Z,1017.56
2023-02-03T18:04:52.943Z,1017.57
2023-02-03T18:05:33.469Z,1017.57
2023-02-03T18:06:14.023Z,1017.53
2023-02-03T18:06:54.551Z,1017.57
2023-02-03T18:07:35.094Z,1017.58
2023-02-03T18:08:20.429Z,1017.64
2023-02-03T18:08:57.892Z,1017.73
2023-02-03T18:09:38.404Z,1017.61
2023-02-03T18:10:18.986Z,1017.52
2023-02-03T18:10:59.503Z,1017.68
2023-02-03T18:11:40.059Z,1017.64
2023-02-03T18:13:55.950Z,1017.66
2023-02-03T18:14:38.445Z,1017.66
2023-02-03T18:15:21.870Z,1017.64
2023-02-03T18:16:03.330Z,1017.72
2023-02-03T18:18:16.049Z,1017.75
2023-02-03T18:18:56.609Z,1017.77
2023-02-03T18:19:37.137Z,1017.75
2023-02-03T18:20:17.700Z,1017.75
2023-02-03T18:20:58.244Z,1017.8
2023-02-03T18:23:13.187Z,1017.79
2023-02-03T18:23:54.570Z,1017.79
2023-02-03T18:24:35.778Z,1017.77
2023-02-03T18:25:17.233Z,1017.85
2023-02-03T18:27:33.002Z,1017.95
2023-02-03T18:28:13.560Z,1017.86
2023-02-03T18:28:54.090Z,1017.98
2023-02-03T18:29:34.639Z,1017.86
2023-02-03T18:30:15.219Z,1017.89
2023-02-03T18:32:29.251Z,1017.94
2023-02-03T18:33:09.799Z,1017.94
2023-02-03T18:33:50.283Z,1017.98
2023-02-03T18:34:30.796Z,1018.03
2023-02-03T18:35:11.315Z,1017.95
2023-02-03T18:37:10.430Z,1017.87
2023-02-03T18:37:50.976Z,1017.88
2023-02-03T18:38:31.525Z,1017.85
2023-02-03T18:39:12.594Z,1017.92
2023-02-03T18:39:52.636Z,1017.93
2023-02-03T18:40:33.195Z,1017.9
2023-02-03T18:41:13.737Z,1017.98
2023-02-03T18:41:54.322Z,1017.94
2023-02-03T18:42:34.850Z,1018.01
2023-02-03T18:43:15.532Z,1018.02
2023-02-03T18:43:55.952Z,1017.99
2023-02-03T18:44:36.500Z,1018.01
2023-02-03T18:45:17.055Z,1018.07
2023-02-03T18:45:57.629Z,1018.04
2023-02-03T18:46:38.157Z,1018.03
2023-02-03T18:47:18.706Z,1018.07
2023-02-03T18:47:59.259Z,1018.11
2023-02-03T18:48:39.818Z,1018.14
2023-02-03T18:49:20.362Z,1018.06
2023-02-03T18:51:33.482Z,1018.12
2023-02-03T18:52:14.116Z,1018.07
2023-02-03T18:52:54.639Z,1018.11
2023-02-03T18:53:35.191Z,1018.05
2023-02-03T18:55:49.412Z,1018.13
2023-02-03T18:56:29.937Z,1018.12
2023-02-03T18:57:10.514Z,1018.1
2023-02-03T18:57:51.038Z,1018.18
2023-02-03T18:58:31.604Z,1018.13
2023-02-03T18:59:12.144Z,1018.19
2023-02-03T19:01:26.595Z,1018.24
2023-02-03T19:02:09.006Z,1018.21
2023-02-03T19:02:50.479Z,1018.25
2023-02-03T19:03:30.942Z,1018.24
2023-02-03T19:04:13.128Z,1018.19
2023-02-03T19:04:56.163Z,1018.16
2023-02-03T19:05:39.129Z,1018.14
2023-02-03T19:06:20.151Z,1018.11
2023-02-03T19:07:02.598Z,1018.12
2023-02-03T19:07:44.128Z,1018.07
2023-02-03T19:08:26.270Z,1018.15
2023-02-03T19:09:07.488Z,1018.04
2023-02-03T19:09:48.071Z,1018.07
2023-02-03T19:11:47.079Z,1018.1
2023-02-03T19:12:28.418Z,1018.08
2023-02-03T19:13:08.988Z,1018.1
2023-02-03T19:13:54.850Z,1018.03
2023-02-03T19:14:35.373Z,1018.06
2023-02-03T19:15:16.790Z,1018.13
2023-02-03T19:17:46.572Z,1018.11
2023-02-03T19:18:27.908Z,1018.07
2023-02-03T19:19:08.433Z,1018.09
2023-02-03T19:19:48.980Z,1018.11
2023-02-03T19:20:29.794Z,1018.04
2023-02-03T19:21:10.046Z,1018.14
2023-02-03T19:21:50.593Z,1018.1
2023-02-03T19:22:31.163Z,1018.11
2023-02-03T19:23:11.688Z,1018.22
2023-02-03T19:25:09.359Z,1018.11
2023-02-03T19:25:49.913Z,1018.16
2023-02-03T19:26:30.506Z,1018.15
2023-02-03T19:27:11.024Z,1018.17
2023-02-03T19:27:51.561Z,1018.15
2023-02-03T19:28:33.575Z,1018.19
2023-02-03T19:29:12.688Z,1018.22
2023-02-03T19:29:53.221Z,1018.21
2023-02-03T19:30:33.826Z,1018.2
2023-02-03T19:31:14.389Z,1018.25
2023-02-03T19:31:54.922Z,1018.24
2023-02-03T19:32:35.324Z,1018.2
2023-02-03T19:33:15.850Z,1018.2
2023-02-03T19:33:56.375Z,1018.28
2023-02-03T19:34:36.902Z,1018.29
2023-02-03T19:35:17.418Z,1018.28
2023-02-03T19:35:57.965Z,1018.28
2023-02-03T19:36:38.493Z,1018.3
2023-02-03T19:37:18.999Z,1018.28
2023-02-03T19:37:59.523Z,1018.28
2023-02-03T19:38:40.066Z,1018.29
2023-02-03T19:39:20.706Z,1018.27
2023-02-03T19:40:01.273Z,1018.3
2023-02-03T19:42:14.369Z,1018.33
2023-02-03T19:42:54.879Z,1018.37
2023-02-03T19:43:35.374Z,1018.39
2023-02-03T19:44:16.015Z,1018.33
2023-02-03T19:46:28.764Z,1018.33
2023-02-03T19:47:09.214Z,1018.29
2023-02-03T19:47:49.758Z,1018.3
2023-02-03T19:48:30.307Z,1018.32
2023-02-03T19:49:10.833Z,1018.39
2023-02-03T19:49:51.339Z,1018.33
2023-02-03T19:50:32.027Z,1018.33
2023-02-03T19:51:12.413Z,1018.39
2023-02-03T19:51:52.963Z,1018.36
2023-02-03T19:52:33.516Z,1018.3
2023-02-03T19:53:14.069Z,1018.37
2023-02-03T19:53:54.613Z,1018.39
2023-02-03T19:54:35.151Z,1018.41
2023-02-03T19:56:32.781Z,1018.4
2023-02-03T19:57:13.320Z,1018.43
2023-02-03T19:57:53.834Z,1018.44
2023-02-03T19:58:34.391Z,1018.38
2023-02-03T19:59:14.926Z,1018.32
2023-02-03T19:59:55.448Z,1018.45
2023-02-03T20:00:35.995Z,1018.46
2023-02-03T20:01:16.554Z,1018.52
2023-02-03T20:01:59.778Z,1018.5
2023-02-03T20:02:37.578Z,1018.47
2023-02-03T20:03:18.157Z,1018.54
2023-02-03T20:03:58.683Z,1018.56
2023-02-03T20:04:39.253Z,1018.53
2023-02-03T20:06:37.378Z,1018.51
2023-02-03T20:07:17.884Z,1018.53
2023-02-03T20:07:58.405Z,1018.53
2023-02-03T20:08:38.949Z,1018.56
2023-02-03T20:09:19.467Z,1018.59
2023-02-03T20:09:59.984Z,1018.56
2023-02-03T20:10:40.547Z,1018.58
2023-02-03T20:11:21.914Z,1018.53
2023-02-03T20:12:02.430Z,1018.49
2023-02-03T20:12:42.972Z,1018.57
2023-02-03T20:13:23.531Z,1018.6
2023-02-03T20:14:04.074Z,1018.5
2023-02-03T20:14:44.623Z,1018.58
2023-02-03T20:15:25.197Z,1018.55
2023-02-03T20:16:05.795Z,1018.51
2023-02-03T20:16:46.298Z,1018.52
2023-02-03T20:17:26.829Z,1018.5
2023-02-03T20:18:07.376Z,1018.48
2023-02-03T20:18:47.932Z,1018.48
2023-02-03T20:21:01.331Z,1018.54
2023-02-03T20:21:41.851Z,1018.5
2023-02-03T20:22:22.556Z,1018.57
2023-02-03T20:23:03.091Z,1018.52
2023-02-03T20:25:15.824Z,1018.48
2023-02-03T20:25:56.328Z,1018.47
2023-02-03T20:26:36.862Z,1018.43
2023-02-03T20:27:17.388Z,1018.47
2023-02-03T20:27:57.977Z,1018.38
2023-02-03T20:28:38.477Z,1018.42
2023-02-03T20:29:19.026Z,1018.44
2023-02-03T20:29:59.546Z,1018.38
2023-02-03T20:30:40.154Z,1018.39
2023-02-03T20:31:20.680Z,1018.42
2023-02-03T20:32:01.211Z,1018.37
2023-02-03T20:32:41.684Z,1018.43
2023-02-03T20:33:22.229Z,1018.34
2023-02-03T20:34:02.779Z,1018.39
2023-02-03T20:34:43.331Z,1018.35
2023-02-03T20:36:41.474Z,1018.3
2023-02-03T20:37:21.987Z,1018.32
2023-02-03T20:38:02.525Z,1018.41
2023-02-03T20:38:43.054Z,1018.34
2023-02-03T20:39:23.605Z,1018.38
2023-02-03T20:40:04.154Z,1018.36
2023-02-03T20:42:17.349Z,1018.35
2023-02-03T20:42:57.928Z,1018.42
2023-02-03T20:43:39.993Z,1018.36
2023-02-03T20:44:20.569Z,1018.31
2023-02-03T20:46:33.354Z,1018.37
2023-02-03T20:47:13.829Z,1018.38
2023-02-03T20:47:54.376Z,1018.4
2023-02-03T20:48:34.932Z,1018.4
2023-02-03T20:49:15.490Z,1018.4
2023-02-03T20:49:56.037Z,1018.35
2023-02-03T20:50:42.162Z,1018.38
2023-02-03T20:51:17.130Z,1018.35
2023-02-03T20:51:57.690Z,1018.32
2023-02-03T20:54:10.968Z,1018.35
2023-02-03T20:54:53.135Z,1018.29
2023-02-03T20:55:36.147Z,1018.43
2023-02-03T20:56:16.652Z,1018.4
2023-02-03T20:58:33.569Z,1018.34
2023-02-03T20:59:14.122Z,1018.35
2023-02-03T20:59:54.675Z,1018.5
2023-02-03T21:00:35.245Z,1018.4
2023-02-03T21:01:15.849Z,1018.46
2023-02-03T21:01:56.376Z,1018.49
2023-02-03T21:02:36.879Z,1018.47
2023-02-03T21:04:50.197Z,1018.49
2023-02-03T21:05:30.716Z,1018.49
2023-02-03T21:06:11.299Z,1018.63
2023-02-03T21:06:51.854Z,1018.46
2023-02-03T21:09:09.970Z,1018.44
2023-02-03T21:09:50.519Z,1018.42
2023-02-03T21:10:31.347Z,1018.47
2023-02-03T21:11:11.552Z,1018.46
2023-02-03T21:11:52.066Z,1018.46
2023-02-03T21:14:06.357Z,1018.48
2023-02-03T21:14:45.649Z,1018.43
2023-02-03T21:15:26.162Z,1018.4
2023-02-03T21:16:06.710Z,1018.44
2023-02-03T21:18:36.510Z,1018.42
2023-02-03T21:19:17.036Z,1018.38
2023-02-03T21:19:57.582Z,1018.36
2023-02-03T21:20:38.104Z,1018.41
2023-02-03T21:21:18.617Z,1018.37
2023-02-03T21:21:59.143Z,1018.38
2023-02-03T21:22:39.657Z,1018.4
2023-02-03T21:23:20.168Z,1018.33
2023-02-03T21:24:00.687Z,1018.34
2023-02-03T21:24:41.241Z,1018.32
2023-02-03T21:25:21.800Z,1018.34
2023-02-03T21:26:02.340Z,1018.27
2023-02-03T21:26:42.889Z,1018.32
2023-02-03T21:27:23.443Z,1018.38
2023-02-03T21:28:04.008Z,1018.37
2023-02-03T21:28:44.511Z,1018.39
2023-02-03T21:29:25.026Z,1018.4
2023-02-03T21:30:05.561Z,1018.41
2023-02-03T21:30:46.151Z,1018.34
2023-02-03T21:31:26.733Z,1018.48
2023-02-03T21:32:07.915Z,1018.38
2023-02-03T21:32:48.391Z,1018.39
2023-02-03T21:33:28.915Z,1018.36
2023-02-03T21:37:22.648Z,1018.37
2023-02-03T21:38:03.137Z,1018.42
2023-02-03T21:38:43.691Z,1018.4
2023-02-03T21:39:24.241Z,1018.5
2023-02-03T21:40:04.794Z,1018.42
2023-02-03T21:42:17.846Z,1018.36
2023-02-03T21:42:58.325Z,1018.5
2023-02-03T21:43:38.879Z,1018.54
2023-02-03T21:44:19.429Z,1018.46
2023-02-03T21:46:33.702Z,1018.53
2023-02-03T21:47:14.230Z,1018.54
2023-02-03T21:47:54.782Z,1018.51
2023-02-03T21:48:35.300Z,1018.55
2023-02-03T21:49:15.818Z,1018.49
2023-02-03T21:51:29.379Z,1018.58
2023-02-03T21:52:09.902Z,1018.58
2023-02-03T21:52:50.469Z,1018.63
2023-02-03T21:53:30.997Z,1018.62
2023-02-03T21:54:11.545Z,1018.65
2023-02-03T21:54:52.098Z,1018.64
2023-02-03T21:57:06.275Z,1018.59
2023-02-03T21:57:46.782Z,1018.6
2023-02-03T21:58:28.053Z,1018.65
2023-02-03T21:59:08.603Z,1018.65
2023-02-03T22:01:27.373Z,1018.65
2023-02-03T22:02:09.483Z,1018.61
2023-02-03T22:02:50.684Z,1018.62
2023-02-03T22:03:31.174Z,1018.57
2023-02-03T22:05:30.345Z,1018.52
2023-02-03T22:06:11.744Z,1018.52
2023-02-03T22:06:52.285Z,1018.49
2023-02-03T22:07:32.835Z,1018.57
2023-02-03T22:09:45.888Z,1018.5
2023-02-03T22:10:26.405Z,1018.53
2023-02-03T22:11:06.963Z,1018.58
2023-02-03T22:11:47.615Z,1018.56
2023-02-03T22:14:06.321Z,1018.57
2023-02-03T22:14:46.826Z,1018.54
2023-02-03T22:15:27.416Z,1018.58
2023-02-03T22:16:07.836Z,1018.61
2023-02-03T22:18:08.753Z,1018.58
2023-02-03T22:18:49.273Z,1018.64
2023-02-03T22:19:29.827Z,1018.67
2023-02-03T22:20:10.374Z,1018.66
2023-02-03T22:20:50.924Z,1018.68
2023-02-03T22:21:31.475Z,1018.74
2023-02-03T22:22:11.977Z,1018.7
2023-02-03T22:22:52.518Z,1018.67
2023-02-03T22:23:33.027Z,1018.7
2023-02-03T22:24:13.588Z,1018.58
2023-02-03T22:24:54.152Z,1018.69
2023-02-03T22:25:34.678Z,1018.7
2023-02-03T22:26:15.241Z,1018.71
2023-02-03T22:26:55.790Z,1018.74
2023-02-03T22:27:36.335Z,1018.75
2023-02-03T22:28:17.462Z,1018.73
2023-02-03T22:28:57.936Z,1018.74
2023-02-03T22:29:40.033Z,1018.73
2023-02-03T22:30:20.582Z,1018.75
2023-02-03T22:31:01.256Z,1018.8
2023-02-03T22:31:41.757Z,1018.69
2023-02-03T22:32:22.176Z,1018.74
2023-02-03T22:34:35.507Z,1018.68
2023-02-03T22:35:16.001Z,1018.7
2023-02-03T22:35:56.524Z,1018.7
2023-02-03T22:36:37.033Z,1018.73
2023-02-03T22:39:06.731Z,1018.79
2023-02-03T22:39:47.281Z,1018.78
2023-02-03T22:40:28.439Z,1018.85
2023-02-03T22:41:08.551Z,1018.9
2023-02-03T22:43:22.442Z,1018.92
2023-02-03T22:44:02.984Z,1018.85
2023-02-03T22:44:43.524Z,1018.83
2023-02-03T22:45:24.128Z,1018.88
2023-02-03T22:49:19.347Z,1018.99
2023-02-03T22:49:59.870Z,1018.94
2023-02-03T22:50:40.744Z,1018.96
2023-02-03T22:51:20.898Z,1018.98
2023-02-03T22:53:49.726Z,1018.96
2023-02-03T22:54:30.255Z,1018.97
2023-02-03T22:55:10.816Z,1018.96
2023-02-03T22:55:51.374Z,1018.94
2023-02-03T22:56:31.885Z,1018.92
2023-02-03T22:57:12.406Z,1018.9
2023-02-03T22:57:52.920Z,1018.9
2023-02-03T22:58:35.348Z,1018.87
2023-02-03T22:59:15.891Z,1018.92
2023-02-03T22:59:56.412Z,1018.89
2023-02-03T23:00:36.947Z,1018.9
2023-02-03T23:01:17.454Z,1018.91
2023-02-03T23:01:57.979Z,1018.95
2023-02-03T23:02:38.521Z,1018.94
2023-02-03T23:03:19.123Z,1018.89
2023-02-03T23:03:59.618Z,1018.96
2023-02-03T23:04:40.247Z,1018.97
2023-02-03T23:05:20.716Z,1018.92
2023-02-03T23:06:01.234Z,1018.95
2023-02-03T23:06:41.831Z,1018.91
2023-02-03T23:07:22.365Z,1018.93
2023-02-03T23:08:02.924Z,1018.92
2023-02-03T23:08:44.260Z,1018.91
2023-02-03T23:09:24.770Z,1018.88
2023-02-03T23:10:06.130Z,1018.86
2023-02-03T23:10:46.660Z,1018.91
2023-02-03T23:11:27.328Z,1018.92
2023-02-03T23:12:07.732Z,1018.87
2023-02-03T23:12:48.254Z,1018.92
2023-02-03T23:13:28.782Z,1018.95
2023-02-03T23:14:09.313Z,1018.93
2023-02-03T23:14:49.870Z,1018.98
2023-02-03T23:15:30.494Z,1018.94
2023-02-03T23:16:11.005Z,1018.94
2023-02-03T23:18:25.242Z,1018.96
2023-02-03T23:19:05.757Z,1018.96
2023-02-03T23:19:46.277Z,1019.01
2023-02-03T23:20:26.833Z,1019.04
2023-02-03T23:21:07.380Z,1019.09
2023-02-03T23:24:23.405Z,1019.09
2023-02-03T23:25:03.989Z,1019.11
2023-02-03T23:25:44.502Z,1019.1
2023-02-03T23:26:25.024Z,1019.15
2023-02-03T23:27:05.595Z,1019.18
2023-02-03T23:27:46.219Z,1019.16
2023-02-03T23:28:26.673Z,1019.17
2023-02-03T23:29:07.234Z,1019.14
2023-02-03T23:29:47.784Z,1019.13
2023-02-03T23:30:28.598Z,1019.15
2023-02-03T23:31:08.963Z,1019.1
2023-02-03T23:31:49.472Z,1019.15
2023-02-03T23:32:29.911Z,1019.08
2023-02-03T23:33:10.439Z,1019.12
2023-02-03T23:33:50.981Z,1019.09
2023-02-03T23:34:31.535Z,1019.07
2023-02-03T23:35:12.096Z,1019.12
2023-02-03T23:35:52.639Z,1019.16
2023-02-03T23:36:33.183Z,1019.04
2023-02-03T23:37:13.711Z,1019.14
2023-02-03T23:37:54.224Z,1019.09
2023-02-03T23:41:10.519Z,1019.15
2023-02-03T23:41:51.055Z,1019.14
2023-02-03T23:42:31.618Z,1019.15
2023-02-03T23:43:12.138Z,1019.11
2023-02-03T23:43:52.701Z,1019.1
2023-02-03T23:44:33.248Z,1019.12
2023-02-03T23:45:13.791Z,1019.13
2023-02-03T23:45:54.340Z,1019.16
2023-02-03T23:48:09.469Z,1019.17
2023-02-03T23:48:49.988Z,1019.2
2023-02-03T23:49:35.186Z,1019.16
2023-02-03T23:50:15.780Z,1019.21
2023-02-03T23:52:30.023Z,1019.16
2023-02-03T23:53:10.571Z,1019.14
2023-02-03T23:53:51.117Z,1019.11
2023-02-03T23:54:31.664Z,1019.12
2023-02-03T23:55:12.197Z,1019.11
2023-02-03T23:55:52.671Z,1019.07
2023-02-03T23:56:33.227Z,1019.07
2023-02-03T23:57:13.737Z,1018.98
2023-02-03T23:57:54.297Z,1019.07
2023-02-03T23:58:34.771Z,1019.01
2023-02-03T23:59:15.318Z,1018.98
2023-02-03T23:59:55.882Z,1019.03
